Terminal Aerodrome Forecast
Issued by NWS Flagstaff, AZ

Home | Current Version | Previous Version | Text Only | Print | Product List | Glossary On
Versions: 1 2 3 4 5 6 7 8 9 10 11 12 13
000
FTUS45 KFGZ 272337
TAFINW
TAF
KINW 272337Z 2800/2824 23018G27KT P6SM BKN070 BKN250
     FM280300 24010G15KT P6SM VCSH BKN050 OVC070
     FM280900 28012KT P6SM BKN050 OVC070 PROB30 2809/2815 6SM -SHRA
      BKN040
     FM281800 32016G26KT P6SM BKN060=

USA.gov is the U.S. government's official web portal to all federal, state and local government web resources and services.